sensor_id;sensor_type;location;lat;lon;timestamp;temperature;humidity
26707;DHT22;14319;49.422;10.934;2023-07-24T00:00:37;18.50;74.20
26707;DHT22;14319;49.422;10.934;2023-07-24T00:02:39;18.70;74.70
26707;DHT22;14319;49.422;10.934;2023-07-24T00:04:40;18.50;76.10
26707;DHT22;14319;49.422;10.934;2023-07-24T00:06:41;18.60;81.30
26707;DHT22;14319;49.422;10.934;2023-07-24T00:08:41;18.40;84.60
26707;DHT22;14319;49.422;10.934;2023-07-24T00:10:42;18.30;82.10
26707;DHT22;14319;49.422;10.934;2023-07-24T00:12:42;18.40;85.60
26707;DHT22;14319;49.422;10.934;2023-07-24T00:14:43;18.70;87.80
26707;DHT22;14319;49.422;10.934;2023-07-24T00:16:43;19.00;89.20
26707;DHT22;14319;49.422;10.934;2023-07-24T00:18:44;19.00;87.90
26707;DHT22;14319;49.422;10.934;2023-07-24T00:20:44;19.00;88.10
26707;DHT22;14319;49.422;10.934;2023-07-24T00:22:45;19.10;87.60
26707;DHT22;14319;49.422;10.934;2023-07-24T00:24:46;19.10;88.20
26707;DHT22;14319;49.422;10.934;2023-07-24T00:26:46;19.10;87.50
26707;DHT22;14319;49.422;10.934;2023-07-24T00:28:47;18.90;82.50
26707;DHT22;14319;49.422;10.934;2023-07-24T00:30:48;18.80;85.90
26707;DHT22;14319;49.422;10.934;2023-07-24T00:32:51;18.90;87.50
26707;DHT22;14319;49.422;10.934;2023-07-24T00:34:52;18.70;82.50
26707;DHT22;14319;49.422;10.934;2023-07-24T00:36:52;18.60;83.30
26707;DHT22;14319;49.422;10.934;2023-07-24T00:38:53;18.50;87.30
26707;DHT22;14319;49.422;10.934;2023-07-24T00:40:54;18.40;87.60
26707;DHT22;14319;49.422;10.934;2023-07-24T00:42:54;18.50;89.20
26707;DHT22;14319;49.422;10.934;2023-07-24T00:44:55;18.50;89.20
26707;DHT22;14319;49.422;10.934;2023-07-24T00:46:55;18.60;90.20
26707;DHT22;14319;49.422;10.934;2023-07-24T00:48:56;18.70;89.40
26707;DHT22;14319;49.422;10.934;2023-07-24T00:50:57;18.70;91.30
26707;DHT22;14319;49.422;10.934;2023-07-24T00:52:58;18.70;88.50
26707;DHT22;14319;49.422;10.934;2023-07-24T00:54:59;18.70;88.40
26707;DHT22;14319;49.422;10.934;2023-07-24T00:57:00;18.70;90.30
26707;DHT22;14319;49.422;10.934;2023-07-24T00:59:01;18.80;91.60
26707;DHT22;14319;49.422;10.934;2023-07-24T01:01:02;18.80;92.50
26707;DHT22;14319;49.422;10.934;2023-07-24T01:03:03;18.80;92.90
26707;DHT22;14319;49.422;10.934;2023-07-24T01:05:05;18.80;93.00
26707;DHT22;14319;49.422;10.934;2023-07-24T01:07:06;18.80;93.10
26707;DHT22;14319;49.422;10.934;2023-07-24T01:09:07;18.80;93.70
26707;DHT22;14319;49.422;10.934;2023-07-24T01:13:57;18.70;93.40
26707;DHT22;14319;49.422;10.934;2023-07-24T01:16:08;18.60;93.30
26707;DHT22;14319;49.422;10.934;2023-07-24T01:18:12;18.60;93.30
26707;DHT22;14319;49.422;10.934;2023-07-24T01:20:15;18.70;93.90
26707;DHT22;14319;49.422;10.934;2023-07-24T01:24:52;18.60;93.50
26707;DHT22;14319;49.422;10.934;2023-07-24T01:26:56;18.50;93.10
26707;DHT22;14319;49.422;10.934;2023-07-24T01:28:56;18.50;94.10
26707;DHT22;14319;49.422;10.934;2023-07-24T01:30:57;18.50;94.40
26707;DHT22;14319;49.422;10.934;2023-07-24T01:32:58;18.50;92.80
26707;DHT22;14319;49.422;10.934;2023-07-24T01:34:58;18.50;93.90
26707;DHT22;14319;49.422;10.934;2023-07-24T01:36:59;18.50;94.10
26707;DHT22;14319;49.422;10.934;2023-07-24T01:39:00;18.50;93.30
26707;DHT22;14319;49.422;10.934;2023-07-24T01:41:02;18.40;94.70
26707;DHT22;14319;49.422;10.934;2023-07-24T01:43:02;18.10;93.10
26707;DHT22;14319;49.422;10.934;2023-07-24T01:45:04;17.40;95.20
26707;DHT22;14319;49.422;10.934;2023-07-24T01:47:05;17.00;97.60
26707;DHT22;14319;49.422;10.934;2023-07-24T01:49:06;16.90;98.80
26707;DHT22;14319;49.422;10.934;2023-07-24T01:51:06;17.10;94.40
26707;DHT22;14319;49.422;10.934;2023-07-24T01:53:07;17.10;94.40
26707;DHT22;14319;49.422;10.934;2023-07-24T01:55:07;17.30;97.00
26707;DHT22;14319;49.422;10.934;2023-07-24T01:57:09;17.50;95.00
26707;DHT22;14319;49.422;10.934;2023-07-24T01:59:10;17.70;94.80
26707;DHT22;14319;49.422;10.934;2023-07-24T02:01:10;17.50;92.90
26707;DHT22;14319;49.422;10.934;2023-07-24T02:03:11;17.50;96.30
26707;DHT22;14319;49.422;10.934;2023-07-24T02:05:12;17.60;97.30
26707;DHT22;14319;49.422;10.934;2023-07-24T02:07:13;17.60;96.40
26707;DHT22;14319;49.422;10.934;2023-07-24T02:09:14;17.60;96.90
26707;DHT22;14319;49.422;10.934;2023-07-24T02:11:15;17.70;97.00
26707;DHT22;14319;49.422;10.934;2023-07-24T02:13:16;17.80;98.00
26707;DHT22;14319;49.422;10.934;2023-07-24T02:15:22;17.90;98.40
26707;DHT22;14319;49.422;10.934;2023-07-24T02:17:23;18.00;98.20
26707;DHT22;14319;49.422;10.934;2023-07-24T02:19:24;18.10;97.80
26707;DHT22;14319;49.422;10.934;2023-07-24T02:21:24;18.20;97.00
26707;DHT22;14319;49.422;10.934;2023-07-24T02:23:27;18.20;97.50
26707;DHT22;14319;49.422;10.934;2023-07-24T02:25:28;18.30;97.30
26707;DHT22;14319;49.422;10.934;2023-07-24T02:27:30;18.40;97.10
26707;DHT22;14319;49.422;10.934;2023-07-24T02:29:34;18.40;96.40
26707;DHT22;14319;49.422;10.934;2023-07-24T02:31:36;18.40;96.90
26707;DHT22;14319;49.422;10.934;2023-07-24T02:33:39;18.50;96.90
26707;DHT22;14319;49.422;10.934;2023-07-24T02:35:41;18.50;97.10
26707;DHT22;14319;49.422;10.934;2023-07-24T02:37:42;18.50;96.70
26707;DHT22;14319;49.422;10.934;2023-07-24T02:39:45;18.40;96.50
26707;DHT22;14319;49.422;10.934;2023-07-24T02:41:48;18.40;96.80
26707;DHT22;14319;49.422;10.934;2023-07-24T02:43:49;18.30;97.30
26707;DHT22;14319;49.422;10.934;2023-07-24T02:45:49;18.20;97.50
26707;DHT22;14319;49.422;10.934;2023-07-24T02:47:50;18.30;97.80
26707;DHT22;14319;49.422;10.934;2023-07-24T02:49:51;18.20;97.50
26707;DHT22;14319;49.422;10.934;2023-07-24T02:51:52;18.30;97.80
26707;DHT22;14319;49.422;10.934;2023-07-24T02:53:54;18.30;97.50
26707;DHT22;14319;49.422;10.934;2023-07-24T02:55:54;18.40;97.30
26707;DHT22;14319;49.422;10.934;2023-07-24T02:57:55;18.40;97.10
26707;DHT22;14319;49.422;10.934;2023-07-24T02:59:55;18.30;96.50
26707;DHT22;14319;49.422;10.934;2023-07-24T03:01:56;18.20;93.50
26707;DHT22;14319;49.422;10.934;2023-07-24T03:03:57;18.10;95.00
26707;DHT22;14319;49.422;10.934;2023-07-24T03:05:57;17.90;96.80
26707;DHT22;14319;49.422;10.934;2023-07-24T03:07:58;17.80;97.20
26707;DHT22;14319;49.422;10.934;2023-07-24T03:09:59;17.90;97.10
26707;DHT22;14319;49.422;10.934;2023-07-24T03:11:59;17.90;97.10
26707;DHT22;14319;49.422;10.934;2023-07-24T03:14:00;17.90;96.50
26707;DHT22;14319;49.422;10.934;2023-07-24T03:16:00;18.00;96.40
26707;DHT22;14319;49.422;10.934;2023-07-24T03:18:01;18.10;96.40
26707;DHT22;14319;49.422;10.934;2023-07-24T03:20:15;18.20;96.20
26707;DHT22;14319;49.422;10.934;2023-07-24T03:22:15;18.20;96.60
26707;DHT22;14319;49.422;10.934;2023-07-24T03:24:17;18.20;96.00
26707;DHT22;14319;49.422;10.934;2023-07-24T03:26:18;18.20;96.50
26707;DHT22;14319;49.422;10.934;2023-07-24T03:28:20;18.20;97.20
26707;DHT22;14319;49.422;10.934;2023-07-24T03:30:21;18.10;98.50
26707;DHT22;14319;49.422;10.934;2023-07-24T03:32:22;18.00;98.90
26707;DHT22;14319;49.422;10.934;2023-07-24T03:34:22;18.10;98.00
26707;DHT22;14319;49.422;10.934;2023-07-24T03:36:23;18.10;96.70
26707;DHT22;14319;49.422;10.934;2023-07-24T03:38:23;18.20;96.50
26707;DHT22;14319;49.422;10.934;2023-07-24T03:40:26;18.10;96.20
26707;DHT22;14319;49.422;10.934;2023-07-24T03:42:29;17.80;95.60
26707;DHT22;14319;49.422;10.934;2023-07-24T03:44:30;17.70;97.40
26707;DHT22;14319;49.422;10.934;2023-07-24T03:46:34;17.70;98.80
26707;DHT22;14319;49.422;10.934;2023-07-24T03:48:35;17.80;98.50
26707;DHT22;14319;49.422;10.934;2023-07-24T03:50:37;17.80;98.30
26707;DHT22;14319;49.422;10.934;2023-07-24T03:52:37;17.70;99.00
26707;DHT22;14319;49.422;10.934;2023-07-24T03:54:38;17.70;99.00
26707;DHT22;14319;49.422;10.934;2023-07-24T03:56:38;17.80;98.80
26707;DHT22;14319;49.422;10.934;2023-07-24T03:58:39;18.00;98.30
26707;DHT22;14319;49.422;10.934;2023-07-24T04:00:40;18.10;98.20
26707;DHT22;14319;49.422;10.934;2023-07-24T04:02:40;17.90;98.40
26707;DHT22;14319;49.422;10.934;2023-07-24T04:04:41;17.90;98.90
26707;DHT22;14319;49.422;10.934;2023-07-24T04:06:42;17.90;99.90
26707;DHT22;14319;49.422;10.934;2023-07-24T04:08:42;17.90;99.50
26707;DHT22;14319;49.422;10.934;2023-07-24T04:10:43;17.90;99.90
26707;DHT22;14319;49.422;10.934;2023-07-24T04:12:43;17.90;99.90
26707;DHT22;14319;49.422;10.934;2023-07-24T04:14:44;18.00;99.90
26707;DHT22;14319;49.422;10.934;2023-07-24T04:16:44;18.00;99.50
26707;DHT22;14319;49.422;10.934;2023-07-24T04:18:45;18.10;99.50
26707;DHT22;14319;49.422;10.934;2023-07-24T04:20:45;18.10;99.70
26707;DHT22;14319;49.422;10.934;2023-07-24T04:22:46;18.20;98.30
26707;DHT22;14319;49.422;10.934;2023-07-24T04:24:47;18.20;98.20
26707;DHT22;14319;49.422;10.934;2023-07-24T04:26:47;18.20;98.30
26707;DHT22;14319;49.422;10.934;2023-07-24T04:28:48;18.20;97.90
26707;DHT22;14319;49.422;10.934;2023-07-24T04:30:48;18.30;98.00
26707;DHT22;14319;49.422;10.934;2023-07-24T04:32:49;18.30;97.30
26707;DHT22;14319;49.422;10.934;2023-07-24T04:34:50;18.30;97.70
26707;DHT22;14319;49.422;10.934;2023-07-24T04:36:51;18.20;97.80
26707;DHT22;14319;49.422;10.934;2023-07-24T04:38:52;18.10;98.90
26707;DHT22;14319;49.422;10.934;2023-07-24T04:40:52;18.10;98.60
26707;DHT22;14319;49.422;10.934;2023-07-24T04:42:53;18.20;98.50
26707;DHT22;14319;49.422;10.934;2023-07-24T04:44:53;18.20;98.80
26707;DHT22;14319;49.422;10.934;2023-07-24T04:46:54;18.30;98.70
26707;DHT22;14319;49.422;10.934;2023-07-24T04:48:56;18.30;99.30
26707;DHT22;14319;49.422;10.934;2023-07-24T04:50:56;18.30;98.60
26707;DHT22;14319;49.422;10.934;2023-07-24T04:52:57;18.20;98.50
26707;DHT22;14319;49.422;10.934;2023-07-24T04:54:57;18.10;98.00
26707;DHT22;14319;49.422;10.934;2023-07-24T04:56:58;18.20;98.80
26707;DHT22;14319;49.422;10.934;2023-07-24T04:58:58;18.30;99.50
26707;DHT22;14319;49.422;10.934;2023-07-24T05:01:03;18.40;99.20
26707;DHT22;14319;49.422;10.934;2023-07-24T05:03:04;18.10;96.10
26707;DHT22;14319;49.422;10.934;2023-07-24T05:05:06;18.00;96.80
26707;DHT22;14319;49.422;10.934;2023-07-24T05:07:06;18.00;98.30
26707;DHT22;14319;49.422;10.934;2023-07-24T05:09:07;17.90;99.90
26707;DHT22;14319;49.422;10.934;2023-07-24T05:11:07;18.10;99.90
26707;DHT22;14319;49.422;10.934;2023-07-24T05:13:08;18.10;99.90
26707;DHT22;14319;49.422;10.934;2023-07-24T05:15:09;18.20;99.90
26707;DHT22;14319;49.422;10.934;2023-07-24T05:17:10;18.10;99.90
26707;DHT22;14319;49.422;10.934;2023-07-24T05:19:10;18.20;99.90
26707;DHT22;14319;49.422;10.934;2023-07-24T05:21:11;18.20;99.90
26707;DHT22;14319;49.422;10.934;2023-07-24T05:23:11;18.30;99.90
26707;DHT22;14319;49.422;10.934;2023-07-24T05:25:12;18.20;97.30
26707;DHT22;14319;49.422;10.934;2023-07-24T05:27:13;18.00;98.20
26707;DHT22;14319;49.422;10.934;2023-07-24T05:29:16;17.60;99.90
26707;DHT22;14319;49.422;10.934;2023-07-24T05:31:16;17.60;99.90
26707;DHT22;14319;49.422;10.934;2023-07-24T05:33:17;17.80;99.90
26707;DHT22;14319;49.422;10.934;2023-07-24T05:35:18;18.00;99.90
26707;DHT22;14319;49.422;10.934;2023-07-24T05:37:18;18.10;98.60
26707;DHT22;14319;49.422;10.934;2023-07-24T05:39:19;18.20;98.50
26707;DHT22;14319;49.422;10.934;2023-07-24T05:41:19;18.20;97.60
26707;DHT22;14319;49.422;10.934;2023-07-24T05:43:20;18.10;99.10
26707;DHT22;14319;49.422;10.934;2023-07-24T05:45:21;18.10;99.40
26707;DHT22;14319;49.422;10.934;2023-07-24T05:47:21;18.20;98.50
26707;DHT22;14319;49.422;10.934;2023-07-24T05:49:22;18.30;98.30
26707;DHT22;14319;49.422;10.934;2023-07-24T05:51:23;18.40;98.20
26707;DHT22;14319;49.422;10.934;2023-07-24T05:53:23;18.50;97.60
26707;DHT22;14319;49.422;10.934;2023-07-24T05:55:24;18.40;98.00
26707;DHT22;14319;49.422;10.934;2023-07-24T05:57:24;18.50;98.70
26707;DHT22;14319;49.422;10.934;2023-07-24T05:59:25;18.50;95.50
26707;DHT22;14319;49.422;10.934;2023-07-24T06:01:26;18.60;95.70
26707;DHT22;14319;49.422;10.934;2023-07-24T06:03:26;18.60;97.40
26707;DHT22;14319;49.422;10.934;2023-07-24T06:05:27;18.70;98.60
26707;DHT22;14319;49.422;10.934;2023-07-24T06:07:27;18.80;99.20
26707;DHT22;14319;49.422;10.934;2023-07-24T06:09:28;18.80;98.50
26707;DHT22;14319;49.422;10.934;2023-07-24T06:11:29;18.80;99.60
26707;DHT22;14319;49.422;10.934;2023-07-24T06:13:29;18.80;99.90
26707;DHT22;14319;49.422;10.934;2023-07-24T06:15:30;18.90;99.30
26707;DHT22;14319;49.422;10.934;2023-07-24T06:17:31;18.90;99.00
26707;DHT22;14319;49.422;10.934;2023-07-24T06:19:31;18.90;99.00
26707;DHT22;14319;49.422;10.934;2023-07-24T06:21:32;18.90;97.60
26707;DHT22;14319;49.422;10.934;2023-07-24T06:23:33;18.80;97.00
26707;DHT22;14319;49.422;10.934;2023-07-24T06:25:33;18.90;94.10
26707;DHT22;14319;49.422;10.934;2023-07-24T06:27:34;18.90;95.70
26707;DHT22;14319;49.422;10.934;2023-07-24T06:29:34;18.90;97.40
26707;DHT22;14319;49.422;10.934;2023-07-24T06:31:35;18.90;98.00
26707;DHT22;14319;49.422;10.934;2023-07-24T06:33:35;19.00;98.50
26707;DHT22;14319;49.422;10.934;2023-07-24T06:35:36;18.90;98.20
26707;DHT22;14319;49.422;10.934;2023-07-24T06:37:37;19.00;98.00
26707;DHT22;14319;49.422;10.934;2023-07-24T06:39:38;19.00;98.50
26707;DHT22;14319;49.422;10.934;2023-07-24T06:41:38;19.00;98.20
26707;DHT22;14319;49.422;10.934;2023-07-24T06:43:39;19.00;98.10
26707;DHT22;14319;49.422;10.934;2023-07-24T06:45:40;19.00;97.50
26707;DHT22;14319;49.422;10.934;2023-07-24T06:47:40;18.90;97.80
26707;DHT22;14319;49.422;10.934;2023-07-24T06:49:41;18.90;98.30
26707;DHT22;14319;49.422;10.934;2023-07-24T06:51:42;18.90;98.60
26707;DHT22;14319;49.422;10.934;2023-07-24T06:53:42;18.90;99.80
26707;DHT22;14319;49.422;10.934;2023-07-24T06:55:43;19.00;99.90
26707;DHT22;14319;49.422;10.934;2023-07-24T06:57:43;19.10;98.20
26707;DHT22;14319;49.422;10.934;2023-07-24T06:59:44;19.10;97.20
26707;DHT22;14319;49.422;10.934;2023-07-24T07:01:44;19.10;98.20
26707;DHT22;14319;49.422;10.934;2023-07-24T07:03:45;19.20;96.90
26707;DHT22;14319;49.422;10.934;2023-07-24T07:05:45;19.30;97.70
26707;DHT22;14319;49.422;10.934;2023-07-24T07:07:46;19.30;97.30
26707;DHT22;14319;49.422;10.934;2023-07-24T07:09:46;19.30;97.40
26707;DHT22;14319;49.422;10.934;2023-07-24T07:11:47;19.30;96.80
26707;DHT22;14319;49.422;10.934;2023-07-24T07:13:48;19.30;97.30
26707;DHT22;14319;49.422;10.934;2023-07-24T07:15:48;19.40;96.50
26707;DHT22;14319;49.422;10.934;2023-07-24T07:17:49;19.40;96.60
26707;DHT22;14319;49.422;10.934;2023-07-24T07:19:49;19.50;97.70
26707;DHT22;14319;49.422;10.934;2023-07-24T07:21:50;19.70;97.70
26707;DHT22;14319;49.422;10.934;2023-07-24T07:23:51;19.60;97.90
26707;DHT22;14319;49.422;10.934;2023-07-24T07:25:52;19.60;98.00
26707;DHT22;14319;49.422;10.934;2023-07-24T07:27:52;19.70;98.70
26707;DHT22;14319;49.422;10.934;2023-07-24T07:29:53;19.70;98.00
26707;DHT22;14319;49.422;10.934;2023-07-24T07:31:53;19.70;98.60
26707;DHT22;14319;49.422;10.934;2023-07-24T07:33:54;19.80;98.60
26707;DHT22;14319;49.422;10.934;2023-07-24T07:35:55;19.90;99.00
26707;DHT22;14319;49.422;10.934;2023-07-24T07:37:55;19.90;99.60
26707;DHT22;14319;49.422;10.934;2023-07-24T07:39:56;19.90;98.80
26707;DHT22;14319;49.422;10.934;2023-07-24T07:41:56;19.90;99.00
26707;DHT22;14319;49.422;10.934;2023-07-24T07:43:57;20.00;98.80
26707;DHT22;14319;49.422;10.934;2023-07-24T07:45:58;20.10;98.50
26707;DHT22;14319;49.422;10.934;2023-07-24T07:47:59;20.10;98.60
26707;DHT22;14319;49.422;10.934;2023-07-24T07:50:00;20.10;95.80
26707;DHT22;14319;49.422;10.934;2023-07-24T07:52:01;20.20;96.50
26707;DHT22;14319;49.422;10.934;2023-07-24T07:54:01;20.30;95.80
26707;DHT22;14319;49.422;10.934;2023-07-24T07:56:02;20.30;96.20
26707;DHT22;14319;49.422;10.934;2023-07-24T07:58:03;20.40;96.50
26707;DHT22;14319;49.422;10.934;2023-07-24T08:00:04;20.30;94.90
26707;DHT22;14319;49.422;10.934;2023-07-24T08:02:06;20.40;95.60
26707;DHT22;14319;49.422;10.934;2023-07-24T08:04:07;20.30;94.90
26707;DHT22;14319;49.422;10.934;2023-07-24T08:06:10;20.40;94.50
26707;DHT22;14319;49.422;10.934;2023-07-24T08:08:10;20.40;93.40
26707;DHT22;14319;49.422;10.934;2023-07-24T08:10:11;20.40;93.90
26707;DHT22;14319;49.422;10.934;2023-07-24T08:12:15;20.40;93.60
26707;DHT22;14319;49.422;10.934;2023-07-24T08:14:16;20.50;92.50
26707;DHT22;14319;49.422;10.934;2023-07-24T08:16:16;20.60;93.60
26707;DHT22;14319;49.422;10.934;2023-07-24T08:18:19;20.60;93.90
26707;DHT22;14319;49.422;10.934;2023-07-24T08:20:19;20.60;93.80
26707;DHT22;14319;49.422;10.934;2023-07-24T08:22:20;20.70;94.00
26707;DHT22;14319;49.422;10.934;2023-07-24T08:24:23;20.70;93.40
26707;DHT22;14319;49.422;10.934;2023-07-24T08:26:23;20.80;92.80
26707;DHT22;14319;49.422;10.934;2023-07-24T08:28:27;20.80;92.80
26707;DHT22;14319;49.422;10.934;2023-07-24T08:30:27;20.90;92.50
26707;DHT22;14319;49.422;10.934;2023-07-24T08:32:29;21.00;91.50
26707;DHT22;14319;49.422;10.934;2023-07-24T08:34:29;21.00;92.40
26707;DHT22;14319;49.422;10.934;2023-07-24T08:36:30;21.00;92.30
26707;DHT22;14319;49.422;10.934;2023-07-24T08:38:31;21.00;92.60
26707;DHT22;14319;49.422;10.934;2023-07-24T08:40:32;21.10;92.10
26707;DHT22;14319;49.422;10.934;2023-07-24T08:42:32;21.10;91.10
26707;DHT22;14319;49.422;10.934;2023-07-24T08:44:34;21.10;89.70
26707;DHT22;14319;49.422;10.934;2023-07-24T08:46:38;21.20;89.20
26707;DHT22;14319;49.422;10.934;2023-07-24T08:48:42;21.40;86.40
26707;DHT22;14319;49.422;10.934;2023-07-24T08:50:43;21.40;87.50
26707;DHT22;14319;49.422;10.934;2023-07-24T08:52:44;21.50;87.10
26707;DHT22;14319;49.422;10.934;2023-07-24T08:54:47;21.50;87.20
26707;DHT22;14319;49.422;10.934;2023-07-24T08:56:49;21.60;85.90
26707;DHT22;14319;49.422;10.934;2023-07-24T08:58:50;21.60;85.00
26707;DHT22;14319;49.422;10.934;2023-07-24T09:00:51;21.70;84.90
26707;DHT22;14319;49.422;10.934;2023-07-24T09:02:51;21.70;83.60
26707;DHT22;14319;49.422;10.934;2023-07-24T09:04:52;21.70;84.80
26707;DHT22;14319;49.422;10.934;2023-07-24T09:06:53;21.60;84.80
26707;DHT22;14319;49.422;10.934;2023-07-24T09:08:56;21.60;85.30
26707;DHT22;14319;49.422;10.934;2023-07-24T09:10:58;21.60;84.40
26707;DHT22;14319;49.422;10.934;2023-07-24T09:12:58;21.60;83.80
26707;DHT22;14319;49.422;10.934;2023-07-24T09:15:03;21.70;82.70
26707;DHT22;14319;49.422;10.934;2023-07-24T09:17:08;21.70;83.60
26707;DHT22;14319;49.422;10.934;2023-07-24T09:19:17;21.70;83.00
26707;DHT22;14319;49.422;10.934;2023-07-24T09:21:30;21.80;83.60
26707;DHT22;14319;49.422;10.934;2023-07-24T09:23:31;21.90;84.10
26707;DHT22;14319;49.422;10.934;2023-07-24T09:25:32;22.00;83.20
26707;DHT22;14319;49.422;10.934;2023-07-24T09:27:33;22.00;83.60
26707;DHT22;14319;49.422;10.934;2023-07-24T09:29:34;22.20;83.40
26707;DHT22;14319;49.422;10.934;2023-07-24T09:31:35;22.20;81.10
26707;DHT22;14319;49.422;10.934;2023-07-24T09:33:38;22.30;82.80
26707;DHT22;14319;49.422;10.934;2023-07-24T09:35:38;22.30;82.40
26707;DHT22;14319;49.422;10.934;2023-07-24T09:37:39;22.40;81.60
26707;DHT22;14319;49.422;10.934;2023-07-24T09:39:40;22.60;80.00
26707;DHT22;14319;49.422;10.934;2023-07-24T09:41:40;22.60;80.20
26707;DHT22;14319;49.422;10.934;2023-07-24T09:43:41;22.80;80.50
26707;DHT22;14319;49.422;10.934;2023-07-24T09:45:43;22.80;80.50
26707;DHT22;14319;49.422;10.934;2023-07-24T09:47:44;22.80;79.80
26707;DHT22;14319;49.422;10.934;2023-07-24T09:49:46;22.90;78.20
26707;DHT22;14319;49.422;10.934;2023-07-24T09:51:49;23.00;79.20
26707;DHT22;14319;49.422;10.934;2023-07-24T09:53:55;23.00;81.10
26707;DHT22;14319;49.422;10.934;2023-07-24T09:55:59;23.10;75.90
26707;DHT22;14319;49.422;10.934;2023-07-24T09:58:00;23.20;75.70
26707;DHT22;14319;49.422;10.934;2023-07-24T10:00:01;23.10;76.50
26707;DHT22;14319;49.422;10.934;2023-07-24T10:02:08;23.00;74.10
26707;DHT22;14319;49.422;10.934;2023-07-24T10:04:11;22.90;73.70
26707;DHT22;14319;49.422;10.934;2023-07-24T10:06:15;22.80;73.90
26707;DHT22;14319;49.422;10.934;2023-07-24T10:08:17;22.80;75.20
26707;DHT22;14319;49.422;10.934;2023-07-24T10:10:18;22.70;75.70
26707;DHT22;14319;49.422;10.934;2023-07-24T10:12:19;22.60;74.50
26707;DHT22;14319;49.422;10.934;2023-07-24T10:14:21;22.50;74.30
26707;DHT22;14319;49.422;10.934;2023-07-24T10:16:22;22.40;74.70
26707;DHT22;14319;49.422;10.934;2023-07-24T10:18:29;22.40;75.70
26707;DHT22;14319;49.422;10.934;2023-07-24T10:20:34;22.30;75.40
26707;DHT22;14319;49.422;10.934;2023-07-24T10:22:36;22.30;75.60
26707;DHT22;14319;49.422;10.934;2023-07-24T10:24:38;22.30;76.10
26707;DHT22;14319;49.422;10.934;2023-07-24T10:26:39;22.30;76.80
26707;DHT22;14319;49.422;10.934;2023-07-24T10:28:40;22.30;76.80
26707;DHT22;14319;49.422;10.934;2023-07-24T10:30:41;22.30;77.50
26707;DHT22;14319;49.422;10.934;2023-07-24T10:32:48;22.20;77.70
26707;DHT22;14319;49.422;10.934;2023-07-24T10:35:07;22.20;78.20
26707;DHT22;14319;49.422;10.934;2023-07-24T10:37:09;22.20;80.10
26707;DHT22;14319;49.422;10.934;2023-07-24T10:39:14;22.20;80.10
26707;DHT22;14319;49.422;10.934;2023-07-24T10:41:15;22.20;79.20
26707;DHT22;14319;49.422;10.934;2023-07-24T10:43:19;22.20;80.80
26707;DHT22;14319;49.422;10.934;2023-07-24T10:45:21;22.10;79.70
26707;DHT22;14319;49.422;10.934;2023-07-24T10:47:21;22.00;80.40
26707;DHT22;14319;49.422;10.934;2023-07-24T10:49:22;22.00;81.30
26707;DHT22;14319;49.422;10.934;2023-07-24T10:51:23;21.90;80.70
26707;DHT22;14319;49.422;10.934;2023-07-24T10:53:24;21.90;81.90
26707;DHT22;14319;49.422;10.934;2023-07-24T10:55:24;21.90;83.70
26707;DHT22;14319;49.422;10.934;2023-07-24T10:57:29;21.90;83.60
26707;DHT22;14319;49.422;10.934;2023-07-24T10:59:37;22.00;84.40
26707;DHT22;14319;49.422;10.934;2023-07-24T11:01:39;22.10;85.10
26707;DHT22;14319;49.422;10.934;2023-07-24T11:03:42;22.10;84.70
26707;DHT22;14319;49.422;10.934;2023-07-24T11:05:45;22.10;87.00
26707;DHT22;14319;49.422;10.934;2023-07-24T11:07:45;22.10;86.90
26707;DHT22;14319;49.422;10.934;2023-07-24T11:09:46;22.00;87.70
26707;DHT22;14319;49.422;10.934;2023-07-24T11:11:47;21.90;87.50
26707;DHT22;14319;49.422;10.934;2023-07-24T11:13:48;21.90;89.30
26707;DHT22;14319;49.422;10.934;2023-07-24T11:15:49;21.90;90.90
26707;DHT22;14319;49.422;10.934;2023-07-24T11:17:50;21.90;91.10
26707;DHT22;14319;49.422;10.934;2023-07-24T11:19:50;21.90;91.10
26707;DHT22;14319;49.422;10.934;2023-07-24T11:21:51;21.90;90.90
26707;DHT22;14319;49.422;10.934;2023-07-24T11:23:54;21.90;91.50
26707;DHT22;14319;49.422;10.934;2023-07-24T11:25:55;21.90;90.50
26707;DHT22;14319;49.422;10.934;2023-07-24T11:27:55;21.90;91.50
26707;DHT22;14319;49.422;10.934;2023-07-24T11:29:56;21.80;90.90
26707;DHT22;14319;49.422;10.934;2023-07-24T11:31:56;21.90;91.10
26707;DHT22;14319;49.422;10.934;2023-07-24T11:33:57;21.90;91.90
26707;DHT22;14319;49.422;10.934;2023-07-24T11:35:58;21.90;93.10
26707;DHT22;14319;49.422;10.934;2023-07-24T11:37:59;22.00;94.10
26707;DHT22;14319;49.422;10.934;2023-07-24T11:40:02;22.00;91.80
26707;DHT22;14319;49.422;10.934;2023-07-24T11:42:05;22.00;92.10
26707;DHT22;14319;49.422;10.934;2023-07-24T11:44:06;22.10;91.80
26707;DHT22;14319;49.422;10.934;2023-07-24T11:46:06;22.10;92.00
26707;DHT22;14319;49.422;10.934;2023-07-24T11:48:10;22.10;91.90
26707;DHT22;14319;49.422;10.934;2023-07-24T11:50:11;22.20;90.90
26707;DHT22;14319;49.422;10.934;2023-07-24T11:52:12;22.10;85.30
26707;DHT22;14319;49.422;10.934;2023-07-24T11:54:12;22.10;87.80
26707;DHT22;14319;49.422;10.934;2023-07-24T11:56:15;22.20;86.00
26707;DHT22;14319;49.422;10.934;2023-07-24T11:58:17;22.20;86.90
26707;DHT22;14319;49.422;10.934;2023-07-24T12:00:20;22.40;87.30
26707;DHT22;14319;49.422;10.934;2023-07-24T12:02:20;22.30;85.20
26707;DHT22;14319;49.422;10.934;2023-07-24T12:04:21;22.30;80.20
26707;DHT22;14319;49.422;10.934;2023-07-24T12:06:22;22.30;80.50
26707;DHT22;14319;49.422;10.934;2023-07-24T12:08:34;22.30;81.80
26707;DHT22;14319;49.422;10.934;2023-07-24T12:10:38;22.40;82.10
26707;DHT22;14319;49.422;10.934;2023-07-24T12:12:43;22.30;79.80
26707;DHT22;14319;49.422;10.934;2023-07-24T12:14:44;22.20;80.50
26707;DHT22;14319;49.422;10.934;2023-07-24T12:16:44;22.20;80.50
26707;DHT22;14319;49.422;10.934;2023-07-24T12:18:45;22.30;82.40
26707;DHT22;14319;49.422;10.934;2023-07-24T12:20:45;22.20;79.70
26707;DHT22;14319;49.422;10.934;2023-07-24T12:22:46;22.20;78.70
26707;DHT22;14319;49.422;10.934;2023-07-24T12:24:47;22.20;79.90
26707;DHT22;14319;49.422;10.934;2023-07-24T12:26:48;22.20;78.60
26707;DHT22;14319;49.422;10.934;2023-07-24T12:28:48;22.20;78.60
26707;DHT22;14319;49.422;10.934;2023-07-24T12:30:49;22.20;79.50
26707;DHT22;14319;49.422;10.934;2023-07-24T12:32:49;22.20;79.30
26707;DHT22;14319;49.422;10.934;2023-07-24T12:34:51;22.20;78.70
26707;DHT22;14319;49.422;10.934;2023-07-24T12:36:52;22.20;77.80
26707;DHT22;14319;49.422;10.934;2023-07-24T12:38:54;22.30;78.70